sensor_id;sensor_type;location;lat;lon;timestamp;P1;durP1;ratioP1;P2;durP2;ratioP2
3817;SDS011;1924;48.078;11.516;2023-07-31T00:01:16;35.07;;;0.80;;
3817;SDS011;1924;48.078;11.516;2023-07-31T00:03:43;35.20;;;0.80;;
3817;SDS011;1924;48.078;11.516;2023-07-31T00:06:10;35.07;;;0.80;;
3817;SDS011;1924;48.078;11.516;2023-07-31T00:08:36;34.93;;;0.80;;
3817;SDS011;1924;48.078;11.516;2023-07-31T00:11:03;34.90;;;0.80;;
3817;SDS011;1924;48.078;11.516;2023-07-31T00:13:31;34.97;;;0.80;;
3817;SDS011;1924;48.078;11.516;2023-07-31T00:15:58;35.00;;;0.80;;
3817;SDS011;1924;48.078;11.516;2023-07-31T00:18:25;35.07;;;0.80;;
3817;SDS011;1924;48.078;11.516;2023-07-31T00:20:52;35.13;;;0.80;;
3817;SDS011;1924;48.078;11.516;2023-07-31T00:23:18;35.40;;;0.90;;
3817;SDS011;1924;48.078;11.516;2023-07-31T00:25:48;35.27;;;0.80;;
3817;SDS011;1924;48.078;11.516;2023-07-31T00:28:14;35.07;;;0.80;;
3817;SDS011;1924;48.078;11.516;2023-07-31T00:30:42;35.33;;;0.80;;
3817;SDS011;1924;48.078;11.516;2023-07-31T00:33:09;35.07;;;0.80;;
3817;SDS011;1924;48.078;11.516;2023-07-31T00:35:36;35.03;;;0.80;;
3817;SDS011;1924;48.078;11.516;2023-07-31T00:38:02;35.13;;;0.80;;
3817;SDS011;1924;48.078;11.516;2023-07-31T00:40:29;35.13;;;0.80;;
3817;SDS011;1924;48.078;11.516;2023-07-31T04:00:41;34.50;;;0.80;;
3817;SDS011;1924;48.078;11.516;2023-07-31T04:03:08;34.40;;;0.80;;
3817;SDS011;1924;48.078;11.516;2023-07-31T04:05:37;34.40;;;0.80;;
3817;SDS011;1924;48.078;11.516;2023-07-31T04:08:04;34.50;;;0.80;;
3817;SDS011;1924;48.078;11.516;2023-07-31T04:10:31;34.60;;;0.80;;
3817;SDS011;1924;48.078;11.516;2023-07-31T04:12:58;34.40;;;0.80;;
3817;SDS011;1924;48.078;11.516;2023-07-31T04:15:25;34.40;;;0.80;;
3817;SDS011;1924;48.078;11.516;2023-07-31T04:17:53;34.33;;;0.80;;
3817;SDS011;1924;48.078;11.516;2023-07-31T04:20:21;34.40;;;0.80;;
3817;SDS011;1924;48.078;11.516;2023-07-31T04:22:48;34.53;;;0.80;;
3817;SDS011;1924;48.078;11.516;2023-07-31T04:25:15;34.37;;;0.80;;
3817;SDS011;1924;48.078;11.516;2023-07-31T04:27:41;34.33;;;0.80;;
3817;SDS011;1924;48.078;11.516;2023-07-31T04:30:08;34.47;;;0.80;;
3817;SDS011;1924;48.078;11.516;2023-07-31T04:32:35;34.60;;;0.80;;
3817;SDS011;1924;48.078;11.516;2023-07-31T04:35:04;34.33;;;0.80;;
3817;SDS011;1924;48.078;11.516;2023-07-31T04:37:31;34.27;;;0.80;;
3817;SDS011;1924;48.078;11.516;2023-07-31T04:39:58;34.40;;;0.80;;
3817;SDS011;1924;48.078;11.516;2023-07-31T04:42:24;34.27;;;0.80;;
3817;SDS011;1924;48.078;11.516;2023-07-31T04:44:51;34.50;;;0.80;;
3817;SDS011;1924;48.078;11.516;2023-07-31T04:47:18;34.37;;;0.80;;
3817;SDS011;1924;48.078;11.516;2023-07-31T04:49:45;34.47;;;0.80;;
3817;SDS011;1924;48.078;11.516;2023-07-31T04:52:13;34.27;;;0.80;;
3817;SDS011;1924;48.078;11.516;2023-07-31T04:54:40;34.40;;;0.80;;
3817;SDS011;1924;48.078;11.516;2023-07-31T04:57:06;34.27;;;0.80;;
3817;SDS011;1924;48.078;11.516;2023-07-31T04:59:33;34.13;;;0.80;;
3817;SDS011;1924;48.078;11.516;2023-07-31T05:02:00;34.23;;;0.80;;
3817;SDS011;1924;48.078;11.516;2023-07-31T05:04:27;34.13;;;0.80;;
3817;SDS011;1924;48.078;11.516;2023-07-31T05:06:53;34.17;;;0.80;;
3817;SDS011;1924;48.078;11.516;2023-07-31T05:09:24;34.23;;;0.80;;
3817;SDS011;1924;48.078;11.516;2023-07-31T05:11:51;34.13;;;0.80;;
3817;SDS011;1924;48.078;11.516;2023-07-31T05:14:18;34.07;;;0.80;;
3817;SDS011;1924;48.078;11.516;2023-07-31T05:16:45;34.30;;;0.80;;
3817;SDS011;1924;48.078;11.516;2023-07-31T05:19:12;34.07;;;0.80;;
3817;SDS011;1924;48.078;11.516;2023-07-31T05:21:39;34.07;;;0.80;;
3817;SDS011;1924;48.078;11.516;2023-07-31T05:24:06;34.30;;;0.80;;
3817;SDS011;1924;48.078;11.516;2023-07-31T05:26:34;34.20;;;0.80;;
3817;SDS011;1924;48.078;11.516;2023-07-31T05:29:01;34.43;;;0.80;;
3817;SDS011;1924;48.078;11.516;2023-07-31T05:31:27;34.47;;;0.80;;
3817;SDS011;1924;48.078;11.516;2023-07-31T05:33:54;34.40;;;0.80;;
3817;SDS011;1924;48.078;11.516;2023-07-31T05:36:21;34.37;;;0.80;;
3817;SDS011;1924;48.078;11.516;2023-07-31T05:38:48;34.60;;;0.80;;
3817;SDS011;1924;48.078;11.516;2023-07-31T05:41:14;34.33;;;0.80;;
3817;SDS011;1924;48.078;11.516;2023-07-31T05:43:43;34.60;;;0.80;;
3817;SDS011;1924;48.078;11.516;2023-07-31T05:46:09;34.63;;;0.80;;
3817;SDS011;1924;48.078;11.516;2023-07-31T05:48:36;34.43;;;0.80;;
3817;SDS011;1924;48.078;11.516;2023-07-31T05:51:03;34.37;;;0.80;;
3817;SDS011;1924;48.078;11.516;2023-07-31T05:53:30;34.40;;;0.80;;
3817;SDS011;1924;48.078;11.516;2023-07-31T05:55:57;34.57;;;0.80;;
3817;SDS011;1924;48.078;11.516;2023-07-31T05:58:24;34.63;;;0.80;;
3817;SDS011;1924;48.078;11.516;2023-07-31T06:00:52;34.30;;;0.80;;
3817;SDS011;1924;48.078;11.516;2023-07-31T06:03:18;34.70;;;0.80;;
3817;SDS011;1924;48.078;11.516;2023-07-31T06:05:45;34.70;;;0.80;;
3817;SDS011;1924;48.078;11.516;2023-07-31T06:08:12;34.73;;;0.80;;
3817;SDS011;1924;48.078;11.516;2023-07-31T06:10:39;34.90;;;0.80;;
3817;SDS011;1924;48.078;11.516;2023-07-31T06:13:06;34.70;;;0.80;;
3817;SDS011;1924;48.078;11.516;2023-07-31T06:15:33;34.47;;;0.80;;
3817;SDS011;1924;48.078;11.516;2023-07-31T06:18:01;34.53;;;0.80;;
3817;SDS011;1924;48.078;11.516;2023-07-31T06:20:29;34.67;;;0.80;;
3817;SDS011;1924;48.078;11.516;2023-07-31T06:22:56;34.47;;;0.80;;
3817;SDS011;1924;48.078;11.516;2023-07-31T06:25:23;34.50;;;0.80;;
3817;SDS011;1924;48.078;11.516;2023-07-31T06:27:49;34.60;;;0.80;;
3817;SDS011;1924;48.078;11.516;2023-07-31T06:30:16;34.63;;;0.80;;
3817;SDS011;1924;48.078;11.516;2023-07-31T06:32:43;34.67;;;0.80;;
3817;SDS011;1924;48.078;11.516;2023-07-31T06:35:11;34.80;;;0.80;;
3817;SDS011;1924;48.078;11.516;2023-07-31T06:37:38;34.67;;;0.80;;
3817;SDS011;1924;48.078;11.516;2023-07-31T06:40:08;34.67;;;0.80;;
3817;SDS011;1924;48.078;11.516;2023-07-31T06:42:36;34.67;;;0.80;;
3817;SDS011;1924;48.078;11.516;2023-07-31T06:45:03;34.80;;;0.80;;
3817;SDS011;1924;48.078;11.516;2023-07-31T06:47:31;34.67;;;0.80;;
3817;SDS011;1924;48.078;11.516;2023-07-31T06:49:57;34.47;;;0.80;;
3817;SDS011;1924;48.078;11.516;2023-07-31T06:52:26;34.77;;;0.80;;
3817;SDS011;1924;48.078;11.516;2023-07-31T06:55:02;34.47;;;0.80;;
3817;SDS011;1924;48.078;11.516;2023-07-31T06:57:30;34.57;;;0.80;;
3817;SDS011;1924;48.078;11.516;2023-07-31T06:59:59;34.57;;;0.80;;
3817;SDS011;1924;48.078;11.516;2023-07-31T07:02:25;34.63;;;0.80;;
3817;SDS011;1924;48.078;11.516;2023-07-31T07:04:52;34.70;;;0.80;;
3817;SDS011;1924;48.078;11.516;2023-07-31T07:07:19;34.67;;;0.80;;
3817;SDS011;1924;48.078;11.516;2023-07-31T07:09:47;34.53;;;0.80;;
3817;SDS011;1924;48.078;11.516;2023-07-31T07:12:14;34.53;;;0.80;;
3817;SDS011;1924;48.078;11.516;2023-07-31T07:14:42;34.50;;;0.80;;
3817;SDS011;1924;48.078;11.516;2023-07-31T07:17:10;34.70;;;0.80;;
3817;SDS011;1924;48.078;11.516;2023-07-31T07:19:40;34.70;;;0.80;;
3817;SDS011;1924;48.078;11.516;2023-07-31T07:22:06;34.60;;;0.80;;
3817;SDS011;1924;48.078;11.516;2023-07-31T07:24:34;34.60;;;0.80;;
3817;SDS011;1924;48.078;11.516;2023-07-31T07:27:02;34.53;;;0.80;;
3817;SDS011;1924;48.078;11.516;2023-07-31T07:29:29;34.37;;;0.80;;
3817;SDS011;1924;48.078;11.516;2023-07-31T07:31:56;34.37;;;0.80;;
3817;SDS011;1924;48.078;11.516;2023-07-31T07:34:26;34.60;;;0.80;;
3817;SDS011;1924;48.078;11.516;2023-07-31T07:36:54;34.70;;;0.80;;
3817;SDS011;1924;48.078;11.516;2023-07-31T07:39:21;34.83;;;0.80;;
3817;SDS011;1924;48.078;11.516;2023-07-31T07:41:47;34.67;;;0.80;;
3817;SDS011;1924;48.078;11.516;2023-07-31T07:44:15;34.57;;;0.80;;
3817;SDS011;1924;48.078;11.516;2023-07-31T07:46:43;34.73;;;0.80;;
3817;SDS011;1924;48.078;11.516;2023-07-31T07:49:09;34.83;;;0.80;;
3817;SDS011;1924;48.078;11.516;2023-07-31T07:51:36;34.67;;;0.80;;
3817;SDS011;1924;48.078;11.516;2023-07-31T07:54:03;34.70;;;0.80;;
3817;SDS011;1924;48.078;11.516;2023-07-31T07:56:29;34.93;;;0.80;;
3817;SDS011;1924;48.078;11.516;2023-07-31T07:58:56;34.87;;;0.80;;
3817;SDS011;1924;48.078;11.516;2023-07-31T08:01:24;34.90;;;0.80;;
3817;SDS011;1924;48.078;11.516;2023-07-31T08:03:51;34.90;;;0.80;;
3817;SDS011;1924;48.078;11.516;2023-07-31T08:06:18;34.87;;;0.80;;
3817;SDS011;1924;48.078;11.516;2023-07-31T08:08:51;34.90;;;0.80;;
3817;SDS011;1924;48.078;11.516;2023-07-31T08:11:18;34.87;;;0.80;;
3817;SDS011;1924;48.078;11.516;2023-07-31T08:13:45;34.93;;;0.80;;
3817;SDS011;1924;48.078;11.516;2023-07-31T08:16:12;34.70;;;0.80;;
3817;SDS011;1924;48.078;11.516;2023-07-31T08:18:40;34.73;;;0.80;;
3817;SDS011;1924;48.078;11.516;2023-07-31T08:21:07;34.70;;;0.80;;
3817;SDS011;1924;48.078;11.516;2023-07-31T08:23:34;34.80;;;0.80;;
3817;SDS011;1924;48.078;11.516;2023-07-31T08:26:01;34.87;;;0.80;;
3817;SDS011;1924;48.078;11.516;2023-07-31T08:28:27;34.83;;;0.80;;
3817;SDS011;1924;48.078;11.516;2023-07-31T08:30:54;34.73;;;0.80;;
3817;SDS011;1924;48.078;11.516;2023-07-31T08:33:21;34.77;;;0.80;;
3817;SDS011;1924;48.078;11.516;2023-07-31T08:35:50;35.00;;;0.80;;
3817;SDS011;1924;48.078;11.516;2023-07-31T08:38:17;34.93;;;0.80;;
3817;SDS011;1924;48.078;11.516;2023-07-31T08:40:44;34.93;;;0.80;;
3817;SDS011;1924;48.078;11.516;2023-07-31T08:43:11;34.73;;;0.80;;
3817;SDS011;1924;48.078;11.516;2023-07-31T08:45:38;34.83;;;0.80;;
3817;SDS011;1924;48.078;11.516;2023-07-31T08:48:07;34.73;;;0.80;;
3817;SDS011;1924;48.078;11.516;2023-07-31T08:50:34;34.80;;;0.80;;
3817;SDS011;1924;48.078;11.516;2023-07-31T08:53:05;34.67;;;0.80;;
3817;SDS011;1924;48.078;11.516;2023-07-31T08:55:32;34.80;;;0.80;;
3817;SDS011;1924;48.078;11.516;2023-07-31T08:57:59;34.83;;;0.80;;
3817;SDS011;1924;48.078;11.516;2023-07-31T09:00:29;34.63;;;0.80;;
3817;SDS011;1924;48.078;11.516;2023-07-31T09:02:59;34.87;;;0.80;;
3817;SDS011;1924;48.078;11.516;2023-07-31T09:05:28;34.77;;;0.80;;
3817;SDS011;1924;48.078;11.516;2023-07-31T09:07:56;34.77;;;0.80;;
3817;SDS011;1924;48.078;11.516;2023-07-31T09:10:24;34.77;;;0.80;;
3817;SDS011;1924;48.078;11.516;2023-07-31T09:12:52;34.67;;;0.80;;
3817;SDS011;1924;48.078;11.516;2023-07-31T09:15:18;34.80;;;0.80;;
3817;SDS011;1924;48.078;11.516;2023-07-31T09:17:46;34.67;;;0.80;;
3817;SDS011;1924;48.078;11.516;2023-07-31T09:20:13;34.77;;;0.80;;
3817;SDS011;1924;48.078;11.516;2023-07-31T09:22:41;34.87;;;0.80;;
3817;SDS011;1924;48.078;11.516;2023-07-31T09:25:15;34.80;;;0.80;;
3817;SDS011;1924;48.078;11.516;2023-07-31T09:27:47;34.80;;;0.80;;
3817;SDS011;1924;48.078;11.516;2023-07-31T09:30:15;34.80;;;0.80;;
3817;SDS011;1924;48.078;11.516;2023-07-31T09:32:42;34.67;;;0.80;;
3817;SDS011;1924;48.078;11.516;2023-07-31T09:35:19;34.80;;;0.80;;
3817;SDS011;1924;48.078;11.516;2023-07-31T09:37:50;34.53;;;0.80;;
3817;SDS011;1924;48.078;11.516;2023-07-31T09:40:28;34.53;;;0.80;;
3817;SDS011;1924;48.078;11.516;2023-07-31T09:42:58;34.63;;;0.80;;
3817;SDS011;1924;48.078;11.516;2023-07-31T09:45:25;34.57;;;0.80;;
3817;SDS011;1924;48.078;11.516;2023-07-31T09:47:53;34.80;;;0.80;;
3817;SDS011;1924;48.078;11.516;2023-07-31T09:50:20;34.87;;;0.80;;
3817;SDS011;1924;48.078;11.516;2023-07-31T09:52:48;34.80;;;0.80;;
3817;SDS011;1924;48.078;11.516;2023-07-31T09:55:18;34.80;;;0.80;;
3817;SDS011;1924;48.078;11.516;2023-07-31T09:57:46;34.70;;;0.80;;
3817;SDS011;1924;48.078;11.516;2023-07-31T10:00:16;34.77;;;0.80;;
3817;SDS011;1924;48.078;11.516;2023-07-31T10:02:45;34.77;;;0.80;;
3817;SDS011;1924;48.078;11.516;2023-07-31T10:05:13;34.70;;;0.80;;
3817;SDS011;1924;48.078;11.516;2023-07-31T10:07:41;34.67;;;0.80;;
3817;SDS011;1924;48.078;11.516;2023-07-31T10:10:11;34.73;;;0.80;;
3817;SDS011;1924;48.078;11.516;2023-07-31T10:12:41;34.83;;;0.80;;
3817;SDS011;1924;48.078;11.516;2023-07-31T10:15:09;34.83;;;0.80;;
3817;SDS011;1924;48.078;11.516;2023-07-31T10:17:38;34.87;;;0.80;;
3817;SDS011;1924;48.078;11.516;2023-07-31T10:20:05;34.73;;;0.80;;
3817;SDS011;1924;48.078;11.516;2023-07-31T10:22:33;34.77;;;0.80;;
3817;SDS011;1924;48.078;11.516;2023-07-31T10:25:01;34.80;;;0.80;;
3817;SDS011;1924;48.078;11.516;2023-07-31T10:27:28;34.73;;;0.80;;
3817;SDS011;1924;48.078;11.516;2023-07-31T10:29:55;34.77;;;0.80;;
3817;SDS011;1924;48.078;11.516;2023-07-31T10:32:24;34.80;;;0.80;;
3817;SDS011;1924;48.078;11.516;2023-07-31T10:34:52;34.67;;;0.80;;
3817;SDS011;1924;48.078;11.516;2023-07-31T10:37:24;34.80;;;0.80;;
3817;SDS011;1924;48.078;11.516;2023-07-31T10:39:55;34.83;;;0.80;;
3817;SDS011;1924;48.078;11.516;2023-07-31T10:42:30;34.67;;;0.80;;
3817;SDS011;1924;48.078;11.516;2023-07-31T10:44:59;34.90;;;0.80;;
3817;SDS011;1924;48.078;11.516;2023-07-31T10:47:29;34.60;;;0.80;;
3817;SDS011;1924;48.078;11.516;2023-07-31T10:50:17;34.60;;;0.80;;
3817;SDS011;1924;48.078;11.516;2023-07-31T10:52:46;34.50;;;0.80;;
3817;SDS011;1924;48.078;11.516;2023-07-31T10:55:24;34.77;;;0.80;;
3817;SDS011;1924;48.078;11.516;2023-07-31T10:57:52;34.67;;;0.80;;
3817;SDS011;1924;48.078;11.516;2023-07-31T11:00:20;34.50;;;0.80;;
3817;SDS011;1924;48.078;11.516;2023-07-31T11:03:02;34.57;;;0.80;;
3817;SDS011;1924;48.078;11.516;2023-07-31T11:08:29;34.63;;;0.80;;
3817;SDS011;1924;48.078;11.516;2023-07-31T11:11:05;34.73;;;0.80;;
3817;SDS011;1924;48.078;11.516;2023-07-31T11:13:39;34.37;;;0.80;;
3817;SDS011;1924;48.078;11.516;2023-07-31T11:21:11;34.33;;;0.80;;
3817;SDS011;1924;48.078;11.516;2023-07-31T11:23:39;34.30;;;0.80;;
3817;SDS011;1924;48.078;11.516;2023-07-31T11:26:06;34.50;;;0.80;;
3817;SDS011;1924;48.078;11.516;2023-07-31T11:28:33;34.53;;;0.80;;
3817;SDS011;1924;48.078;11.516;2023-07-31T11:31:01;34.47;;;0.80;;
3817;SDS011;1924;48.078;11.516;2023-07-31T11:33:28;34.70;;;0.80;;
3817;SDS011;1924;48.078;11.516;2023-07-31T11:35:55;34.80;;;0.80;;
3817;SDS011;1924;48.078;11.516;2023-07-31T11:38:23;34.97;;;0.80;;
3817;SDS011;1924;48.078;11.516;2023-07-31T11:40:51;34.93;;;0.80;;
3817;SDS011;1924;48.078;11.516;2023-07-31T11:43:19;34.97;;;0.80;;
3817;SDS011;1924;48.078;11.516;2023-07-31T11:45:47;34.87;;;0.80;;
3817;SDS011;1924;48.078;11.516;2023-07-31T11:48:21;35.03;;;0.80;;
3817;SDS011;1924;48.078;11.516;2023-07-31T11:50:49;35.00;;;0.80;;
3817;SDS011;1924;48.078;11.516;2023-07-31T11:53:17;35.07;;;0.80;;
3817;SDS011;1924;48.078;11.516;2023-07-31T11:55:47;35.13;;;0.80;;
3817;SDS011;1924;48.078;11.516;2023-07-31T11:58:15;35.20;;;0.80;;
3817;SDS011;1924;48.078;11.516;2023-07-31T12:00:43;35.03;;;0.80;;
3817;SDS011;1924;48.078;11.516;2023-07-31T12:03:10;35.27;;;0.80;;
3817;SDS011;1924;48.078;11.516;2023-07-31T12:05:37;35.23;;;0.80;;
3817;SDS011;1924;48.078;11.516;2023-07-31T12:08:08;35.20;;;0.80;;
3817;SDS011;1924;48.078;11.516;2023-07-31T12:10:36;35.40;;;0.80;;
3817;SDS011;1924;48.078;11.516;2023-07-31T12:13:07;35.43;;;0.80;;
3817;SDS011;1924;48.078;11.516;2023-07-31T12:15:36;35.37;;;0.80;;
3817;SDS011;1924;48.078;11.516;2023-07-31T12:18:05;35.27;;;0.80;;
3817;SDS011;1924;48.078;11.516;2023-07-31T12:20:33;35.40;;;0.80;;
3817;SDS011;1924;48.078;11.516;2023-07-31T12:23:00;35.43;;;0.80;;
3817;SDS011;1924;48.078;11.516;2023-07-31T12:25:31;35.47;;;0.80;;
3817;SDS011;1924;48.078;11.516;2023-07-31T12:28:03;35.27;;;0.80;;
3817;SDS011;1924;48.078;11.516;2023-07-31T12:30:33;35.50;;;0.80;;
3817;SDS011;1924;48.078;11.516;2023-07-31T12:33:03;35.37;;;0.80;;
3817;SDS011;1924;48.078;11.516;2023-07-31T12:35:34;35.53;;;0.80;;
3817;SDS011;1924;48.078;11.516;2023-07-31T12:38:02;35.53;;;0.80;;
3817;SDS011;1924;48.078;11.516;2023-07-31T12:40:29;35.50;;;0.80;;
3817;SDS011;1924;48.078;11.516;2023-07-31T12:42:56;35.40;;;0.80;;
3817;SDS011;1924;48.078;11.516;2023-07-31T12:45:23;35.40;;;0.80;;
3817;SDS011;1924;48.078;11.516;2023-07-31T12:47:51;35.37;;;0.80;;
3817;SDS011;1924;48.078;11.516;2023-07-31T12:50:17;35.53;;;0.80;;
3817;SDS011;1924;48.078;11.516;2023-07-31T12:52:44;35.50;;;0.80;;
3817;SDS011;1924;48.078;11.516;2023-07-31T12:55:11;35.57;;;0.80;;
3817;SDS011;1924;48.078;11.516;2023-07-31T12:57:39;35.57;;;0.80;;
3817;SDS011;1924;48.078;11.516;2023-07-31T13:00:06;35.60;;;0.80;;
3817;SDS011;1924;48.078;11.516;2023-07-31T13:02:34;35.40;;;0.80;;
3817;SDS011;1924;48.078;11.516;2023-07-31T13:05:02;35.40;;;0.80;;
3817;SDS011;1924;48.078;11.516;2023-07-31T13:07:29;35.53;;;0.80;;
3817;SDS011;1924;48.078;11.516;2023-07-31T13:09:55;35.43;;;0.80;;
3817;SDS011;1924;48.078;11.516;2023-07-31T13:12:22;35.50;;;0.80;;
3817;SDS011;1924;48.078;11.516;2023-07-31T13:14:49;35.50;;;0.80;;
3817;SDS011;1924;48.078;11.516;2023-07-31T13:17:17;35.37;;;0.80;;
3817;SDS011;1924;48.078;11.516;2023-07-31T13:19:44;35.60;;;0.80;;
3817;SDS011;1924;48.078;11.516;2023-07-31T13:22:12;35.70;;;0.80;;
3817;SDS011;1924;48.078;11.516;2023-07-31T13:24:38;35.57;;;0.80;;
3817;SDS011;1924;48.078;11.516;2023-07-31T13:27:05;35.60;;;0.80;;
3817;SDS011;1924;48.078;11.516;2023-07-31T13:29:32;35.60;;;0.80;;
3817;SDS011;1924;48.078;11.516;2023-07-31T13:31:59;35.63;;;0.80;;
3817;SDS011;1924;48.078;11.516;2023-07-31T13:34:25;35.57;;;0.80;;
3817;SDS011;1924;48.078;11.516;2023-07-31T13:36:53;35.57;;;0.80;;
3817;SDS011;1924;48.078;11.516;2023-07-31T13:39:21;35.53;;;0.80;;
3817;SDS011;1924;48.078;11.516;2023-07-31T13:41:48;35.50;;;0.80;;
3817;SDS011;1924;48.078;11.516;2023-07-31T13:44:15;35.33;;;0.80;;
3817;SDS011;1924;48.078;11.516;2023-07-31T13:46:41;35.27;;;0.80;;
3817;SDS011;1924;48.078;11.516;2023-07-31T13:49:08;35.50;;;0.80;;
3817;SDS011;1924;48.078;11.516;2023-07-31T13:51:35;35.40;;;0.80;;
3817;SDS011;1924;48.078;11.516;2023-07-31T13:54:04;35.37;;;0.80;;
3817;SDS011;1924;48.078;11.516;2023-07-31T13:56:33;35.20;;;0.80;;
3817;SDS011;1924;48.078;11.516;2023-07-31T13:58:59;35.30;;;0.80;;
3817;SDS011;1924;48.078;11.516;2023-07-31T14:01:27;35.37;;;0.80;;
3817;SDS011;1924;48.078;11.516;2023-07-31T14:03:53;35.23;;;0.80;;
3817;SDS011;1924;48.078;11.516;2023-07-31T14:06:20;35.17;;;0.80;;
3817;SDS011;1924;48.078;11.516;2023-07-31T14:08:47;35.23;;;0.80;;
3817;SDS011;1924;48.078;11.516;2023-07-31T14:11:13;35.17;;;0.80;;
3817;SDS011;1924;48.078;11.516;2023-07-31T14:13:42;35.27;;;0.80;;
3817;SDS011;1924;48.078;11.516;2023-07-31T14:16:08;35.30;;;0.80;;
3817;SDS011;1924;48.078;11.516;2023-07-31T14:18:35;35.50;;;0.80;;
3817;SDS011;1924;48.078;11.516;2023-07-31T14:21:02;35.27;;;0.80;;
3817;SDS011;1924;48.078;11.516;2023-07-31T14:23:29;35.37;;;0.80;;
3817;SDS011;1924;48.078;11.516;2023-07-31T14:25:55;35.40;;;0.80;;
3817;SDS011;1924;48.078;11.516;2023-07-31T14:28:22;35.37;;;0.80;;
3817;SDS011;1924;48.078;11.516;2023-07-31T14:30:50;35.47;;;0.80;;
3817;SDS011;1924;48.078;11.516;2023-07-31T14:33:17;35.70;;;0.80;;
3817;SDS011;1924;48.078;11.516;2023-07-31T14:35:44;35.60;;;0.80;;
3817;SDS011;1924;48.078;11.516;2023-07-31T14:38:10;35.67;;;0.80;;
3817;SDS011;1924;48.078;11.516;2023-07-31T14:40:38;35.70;;;0.80;;
3817;SDS011;1924;48.078;11.516;2023-07-31T14:43:05;35.67;;;0.80;;
3817;SDS011;1924;48.078;11.516;2023-07-31T14:45:32;35.67;;;0.80;;
3817;SDS011;1924;48.078;11.516;2023-07-31T14:48:00;35.63;;;0.80;;
3817;SDS011;1924;48.078;11.516;2023-07-31T14:50:26;36.10;;;0.80;;
3817;SDS011;1924;48.078;11.516;2023-07-31T14:52:53;35.70;;;0.80;;
3817;SDS011;1924;48.078;11.516;2023-07-31T14:55:20;35.67;;;0.80;;
3817;SDS011;1924;48.078;11.516;2023-07-31T14:57:47;35.60;;;0.80;;
3817;SDS011;1924;48.078;11.516;2023-07-31T15:00:16;35.70;;;0.80;;
3817;SDS011;1924;48.078;11.516;2023-07-31T15:02:43;35.70;;;0.80;;
3817;SDS011;1924;48.078;11.516;2023-07-31T15:05:11;35.60;;;0.80;;
3817;SDS011;1924;48.078;11.516;2023-07-31T15:07:38;35.77;;;0.80;;
3817;SDS011;1924;48.078;11.516;2023-07-31T15:10:05;35.73;;;0.80;;
3817;SDS011;1924;48.078;11.516;2023-07-31T15:12:33;35.60;;;0.80;;
3817;SDS011;1924;48.078;11.516;2023-07-31T15:15:02;35.63;;;0.80;;
3817;SDS011;1924;48.078;11.516;2023-07-31T15:17:30;35.53;;;0.80;;
3817;SDS011;1924;48.078;11.516;2023-07-31T15:19:56;35.60;;;0.80;;
3817;SDS011;1924;48.078;11.516;2023-07-31T15:22:24;35.70;;;0.80;;
3817;SDS011;1924;48.078;11.516;2023-07-31T15:24:52;35.57;;;0.80;;
3817;SDS011;1924;48.078;11.516;2023-07-31T15:27:19;35.70;;;0.80;;
3817;SDS011;1924;48.078;11.516;2023-07-31T15:29:45;35.57;;;0.80;;
3817;SDS011;1924;48.078;11.516;2023-07-31T15:32:12;35.67;;;0.80;;
3817;SDS011;1924;48.078;11.516;2023-07-31T15:34:39;35.73;;;0.80;;
3817;SDS011;1924;48.078;11.516;2023-07-31T15:37:05;35.87;;;0.80;;
3817;SDS011;1924;48.078;11.516;2023-07-31T15:39:33;35.80;;;0.80;;
3817;SDS011;1924;48.078;11.516;2023-07-31T15:42:00;35.67;;;0.80;;
3817;SDS011;1924;48.078;11.516;2023-07-31T15:44:27;35.87;;;0.80;;
3817;SDS011;1924;48.078;11.516;2023-07-31T15:46:54;35.83;;;0.80;;
3817;SDS011;1924;48.078;11.516;2023-07-31T15:49:20;35.80;;;0.80;;
3817;SDS011;1924;48.078;11.516;2023-07-31T15:51:47;35.87;;;0.80;;
3817;SDS011;1924;48.078;11.516;2023-07-31T15:54:14;35.67;;;0.80;;
3817;SDS011;1924;48.078;11.516;2023-07-31T15:56:42;35.73;;;0.80;;
3817;SDS011;1924;48.078;11.516;2023-07-31T15:59:09;35.63;;;0.80;;
3817;SDS011;1924;48.078;11.516;2023-07-31T16:01:35;35.60;;;0.80;;
3817;SDS011;1924;48.078;11.516;2023-07-31T16:04:02;35.63;;;0.80;;
3817;SDS011;1924;48.078;11.516;2023-07-31T16:06:29;35.37;;;0.80;;
3817;SDS011;1924;48.078;11.516;2023-07-31T16:08:56;35.27;;;0.80;;
3817;SDS011;1924;48.078;11.516;2023-07-31T16:11:22;35.57;;;0.80;;
3817;SDS011;1924;48.078;11.516;2023-07-31T16:13:51;35.57;;;0.80;;
3817;SDS011;1924;48.078;11.516;2023-07-31T16:16:17;35.37;;;0.80;;
3817;SDS011;1924;48.078;11.516;2023-07-31T16:18:45;35.40;;;0.80;;
3817;SDS011;1924;48.078;11.516;2023-07-31T16:21:11;35.30;;;0.80;;
3817;SDS011;1924;48.078;11.516;2023-07-31T16:23:38;35.37;;;0.80;;
3817;SDS011;1924;48.078;11.516;2023-07-31T16:26:05;35.33;;;0.80;;
3817;SDS011;1924;48.078;11.516;2023-07-31T16:28:31;35.47;;;0.80;;
3817;SDS011;1924;48.078;11.516;2023-07-31T16:31:00;35.50;;;0.80;;
3817;SDS011;1924;48.078;11.516;2023-07-31T16:33:26;35.37;;;0.80;;
3817;SDS011;1924;48.078;11.516;2023-07-31T16:35:53;35.47;;;0.80;;
3817;SDS011;1924;48.078;11.516;2023-07-31T16:38:20;35.50;;;0.80;;
3817;SDS011;1924;48.078;11.516;2023-07-31T16:40:47;35.50;;;0.80;;
3817;SDS011;1924;48.078;11.516;2023-07-31T16:43:14;35.37;;;0.80;;
3817;SDS011;1924;48.078;11.516;2023-07-31T16:45:41;35.47;;;0.80;;
3817;SDS011;1924;48.078;11.516;2023-07-31T16:48:09;35.30;;;0.80;;
3817;SDS011;1924;48.078;11.516;2023-07-31T16:50:35;35.47;;;0.80;;
3817;SDS011;1924;48.078;11.516;2023-07-31T16:53:02;35.43;;;0.80;;
3817;SDS011;1924;48.078;11.516;2023-07-31T16:55:29;35.50;;;0.80;;
3817;SDS011;1924;48.078;11.516;2023-07-31T16:57:58;35.37;;;0.80;;
3817;SDS011;1924;48.078;11.516;2023-07-31T17:00:25;35.23;;;0.80;;
3817;SDS011;1924;48.078;11.516;2023-07-31T17:02:53;35.53;;;0.80;;
3817;SDS011;1924;48.078;11.516;2023-07-31T17:05:22;35.40;;;0.80;;
3817;SDS011;1924;48.078;11.516;2023-07-31T17:07:48;35.43;;;0.80;;
3817;SDS011;1924;48.078;11.516;2023-07-31T17:10:15;35.40;;;0.80;;
3817;SDS011;1924;48.078;11.516;2023-07-31T17:12:43;35.50;;;0.80;;
3817;SDS011;1924;48.078;11.516;2023-07-31T17:15:10;35.40;;;0.80;;
3817;SDS011;1924;48.078;11.516;2023-07-31T17:17:36;35.27;;;0.80;;
3817;SDS011;1924;48.078;11.516;2023-07-31T17:20:03;35.20;;;0.80;;
3817;SDS011;1924;48.078;11.516;2023-07-31T17:22:32;35.33;;;0.80;;
3817;SDS011;1924;48.078;11.516;2023-07-31T17:24:59;35.27;;;0.80;;
3817;SDS011;1924;48.078;11.516;2023-07-31T17:27:26;35.27;;;0.80;;
3817;SDS011;1924;48.078;11.516;2023-07-31T17:29:53;35.33;;;0.80;;
3817;SDS011;1924;48.078;11.516;2023-07-31T17:32:21;35.13;;;0.80;;
3817;SDS011;1924;48.078;11.516;2023-07-31T17:34:48;35.33;;;0.80;;
3817;SDS011;1924;48.078;11.516;2023-07-31T17:37:15;35.13;;;0.80;;
3817;SDS011;1924;48.078;11.516;2023-07-31T17:39:43;35.37;;;0.80;;
3817;SDS011;1924;48.078;11.516;2023-07-31T17:42:09;35.50;;;0.80;;
3817;SDS011;1924;48.078;11.516;2023-07-31T17:44:36;35.47;;;0.80;;
3817;SDS011;1924;48.078;11.516;2023-07-31T17:47:03;35.40;;;0.80;;
3817;SDS011;1924;48.078;11.516;2023-07-31T17:49:29;35.43;;;0.80;;
3817;SDS011;1924;48.078;11.516;2023-07-31T17:51:56;35.37;;;0.80;;
3817;SDS011;1924;48.078;11.516;2023-07-31T17:54:25;35.43;;;0.80;;
3817;SDS011;1924;48.078;11.516;2023-07-31T17:56:54;35.27;;;0.80;;
3817;SDS011;1924;48.078;11.516;2023-07-31T17:59:20;35.20;;;0.80;;
3817;SDS011;1924;48.078;11.516;2023-07-31T18:01:47;35.27;;;0.80;;
3817;SDS011;1924;48.078;11.516;2023-07-31T18:04:14;35.20;;;0.80;;
3817;SDS011;1924;48.078;11.516;2023-07-31T18:06:41;35.33;;;0.80;;
3817;SDS011;1924;48.078;11.516;2023-07-31T18:09:08;35.40;;;0.80;;
3817;SDS011;1924;48.078;11.516;2023-07-31T18:11:35;35.40;;;0.80;;
3817;SDS011;1924;48.078;11.516;2023-07-31T18:14:03;35.43;;;0.80;;
3817;SDS011;1924;48.078;11.516;2023-07-31T18:16:29;35.43;;;0.80;;